McDonald, Tennessee
Current Conditions -  °F | °C
As of 9:15 PM on Saturday 27 Dec 2014 (Local Time) from KRZR Reporting Station
Overcast Overcast  
Wind Chill: 52°   Ceiling: 3500
Heat Index: 52°   Visibility: 10mi
Dew Point: 39°   Wind: 0mph
Humidity: 62%   Direction: NA
Pressure: 30.16"   Gusts: NA
Location:  35.11°N, 84.98°W
Report Text: KRZR 280215Z AUTO 00000KT 10SM BKN035 OVC100 11/04 A3016 RMK
Loading
Personal Weather Stations






























Interactive Weather Map New forecast layout! Learn more

10-Day Weather Forecast

Advertisements
Track Severe Weather on mobile